createdAt,value
2023-05-20T00:01:17.345Z,0.29
2023-05-20T00:03:12.027Z,0.29
2023-05-20T00:05:12.300Z,0.29
2023-05-20T00:07:10.577Z,0.29
2023-05-20T00:09:11.058Z,0
2023-05-20T00:11:10.788Z,0
2023-05-20T00:13:11.354Z,0
2023-05-20T00:15:10.948Z,0.28
2023-05-20T00:17:11.934Z,0.28
2023-05-20T00:19:11.112Z,0.28
2023-05-20T00:21:10.507Z,0.29
2023-05-20T00:23:11.009Z,0.29
2023-05-20T00:25:10.813Z,0.29
2023-05-20T00:27:11.312Z,0
2023-05-20T00:29:10.663Z,0
2023-05-20T00:31:11.500Z,0
2023-05-20T00:33:11.515Z,0
2023-05-20T00:35:10.663Z,0
2023-05-20T00:37:10.969Z,0
2023-05-20T00:39:10.754Z,0
2023-05-20T00:41:13.257Z,0
2023-05-20T00:43:11.197Z,0
2023-05-20T00:45:10.702Z,0.28
2023-05-20T00:47:11.504Z,0.28
2023-05-20T00:49:10.829Z,0.28
2023-05-20T00:51:11.500Z,0
2023-05-20T00:53:10.945Z,0
2023-05-20T00:55:10.535Z,0
2023-05-20T00:57:10.884Z,0
2023-05-20T00:59:11.375Z,0
2023-05-20T01:01:14.619Z,0
2023-05-20T01:03:11.525Z,0
2023-05-20T01:05:11.145Z,0
2023-05-20T01:07:10.685Z,0
2023-05-20T01:09:11.032Z,0
2023-05-20T01:11:11.034Z,0
2023-05-20T01:13:10.517Z,0
2023-05-20T01:15:11.294Z,0
2023-05-20T01:17:10.838Z,0
2023-05-20T01:19:11.875Z,0
2023-05-20T01:21:10.792Z,0.28
2023-05-20T01:23:11.290Z,0.28
2023-05-20T01:25:10.695Z,0.28
2023-05-20T01:27:11.542Z,0
2023-05-20T01:29:11.030Z,0
2023-05-20T01:31:10.844Z,0
2023-05-20T01:33:11.374Z,0
2023-05-20T01:35:10.726Z,0
2023-05-20T01:37:11.370Z,0
2023-05-20T01:39:10.834Z,0
2023-05-20T01:41:10.708Z,0
2023-05-20T01:43:10.494Z,0
2023-05-20T01:45:11.032Z,0.27
2023-05-20T01:47:11.009Z,0.27
2023-05-20T01:49:11.478Z,0.27
2023-05-20T01:51:11.274Z,0.27
2023-05-20T01:53:10.523Z,0.27
2023-05-20T01:55:11.081Z,0.27
2023-05-20T01:57:10.649Z,0
2023-05-20T01:59:11.242Z,0
2023-05-20T02:01:13.983Z,0
2023-05-20T02:03:11.228Z,0
2023-05-20T02:05:11.061Z,0
2023-05-20T02:07:10.766Z,0
2023-05-20T02:09:11.204Z,0
2023-05-20T02:11:10.861Z,0
2023-05-20T02:13:11.287Z,0
2023-05-20T02:15:11.214Z,0.26
2023-05-20T02:17:11.191Z,0.26
2023-05-20T02:19:10.753Z,0.26
2023-05-20T02:21:11.324Z,0
2023-05-20T02:23:10.704Z,0
2023-05-20T02:25:10.511Z,0
2023-05-20T02:27:10.946Z,0
2023-05-20T02:29:10.723Z,0
2023-05-20T02:31:11.392Z,0
2023-05-20T02:33:11.020Z,0.26
2023-05-20T02:35:10.926Z,0.26
2023-05-20T02:37:11.260Z,0.26
2023-05-20T02:39:10.959Z,0.26
2023-05-20T02:41:10.455Z,0.26
2023-05-20T02:43:10.868Z,0.26
2023-05-20T02:45:10.741Z,0
2023-05-20T02:47:11.352Z,0
2023-05-20T02:49:11.032Z,0
2023-05-20T02:51:11.226Z,0
2023-05-20T02:53:11.009Z,0
2023-05-20T02:55:10.611Z,0
2023-05-20T02:57:11.217Z,0
2023-05-20T02:59:10.684Z,0
2023-05-20T03:01:14.659Z,0
2023-05-20T03:03:11.360Z,0
2023-05-20T03:05:11.158Z,0
2023-05-20T03:07:11.357Z,0
2023-05-20T03:09:10.837Z,0.25
2023-05-20T03:11:10.652Z,0.25
2023-05-20T03:13:11.030Z,0.25
2023-05-20T03:15:10.734Z,0
2023-05-20T03:17:11.482Z,0
2023-05-20T03:19:11.218Z,0
2023-05-20T03:21:10.869Z,0
2023-05-20T03:23:11.162Z,0
2023-05-20T03:25:10.780Z,0
2023-05-20T03:27:10.612Z,0
2023-05-20T03:29:10.895Z,0
2023-05-20T03:31:10.809Z,0
2023-05-20T03:33:11.366Z,0.25
2023-05-20T03:35:10.747Z,0.25
2023-05-20T03:37:11.259Z,0.25
2023-05-20T03:39:10.833Z,0
2023-05-20T03:41:10.712Z,0
2023-05-20T03:43:11.094Z,0
2023-05-20T03:45:10.991Z,0.25
2023-05-20T03:47:11.722Z,0.25
2023-05-20T03:49:11.236Z,0.25
2023-05-20T03:51:10.862Z,0
2023-05-20T03:53:11.289Z,0
2023-05-20T03:55:10.905Z,0
2023-05-20T03:57:10.290Z,0
2023-05-20T03:59:10.924Z,0
2023-05-20T04:01:14.652Z,0
2023-05-20T04:03:11.330Z,0
2023-05-20T04:05:11.366Z,0
2023-05-20T04:07:12.597Z,0
2023-05-20T04:09:11.383Z,0
2023-05-20T04:11:11.034Z,0
2023-05-20T04:13:10.615Z,0
2023-05-20T04:15:11.047Z,0.25
2023-05-20T04:17:10.946Z,0.25
2023-05-20T04:19:11.760Z,0.25
2023-05-20T04:21:11.177Z,0
2023-05-20T04:23:10.593Z,0
2023-05-20T04:25:11.427Z,0
2023-05-20T04:27:10.504Z,0
2023-05-20T04:29:11.168Z,0
2023-05-20T04:31:11.188Z,0
2023-05-20T04:33:10.901Z,0
2023-05-20T04:35:11.131Z,0
2023-05-20T04:37:10.674Z,0
2023-05-20T04:39:14.096Z,0
2023-05-20T04:41:11.142Z,0
2023-05-20T04:43:10.657Z,0
2023-05-20T04:45:11.297Z,0
2023-05-20T04:47:11.147Z,0
2023-05-20T04:49:10.753Z,0
2023-05-20T04:51:11.452Z,0.26
2023-05-20T04:53:11.053Z,0.26
2023-05-20T04:55:11.605Z,0.26
2023-05-20T04:57:10.915Z,0
2023-05-20T04:59:10.505Z,0
2023-05-20T05:01:14.862Z,0
2023-05-20T05:03:11.021Z,0
2023-05-20T05:05:10.748Z,0
2023-05-20T05:07:11.333Z,0
2023-05-20T05:09:11.068Z,0
2023-05-20T05:11:10.619Z,0
2023-05-20T05:13:11.195Z,0
2023-05-20T05:15:11.006Z,0
2023-05-20T05:17:11.194Z,0
2023-05-20T05:19:11.632Z,0
2023-05-20T05:21:11.623Z,0
2023-05-20T05:23:11.012Z,0
2023-05-20T05:25:10.864Z,0
2023-05-20T05:27:11.283Z,0
2023-05-20T05:29:11.742Z,0
2023-05-20T05:31:11.614Z,0
2023-05-20T05:33:11.802Z,0
2023-05-20T05:35:10.526Z,0
2023-05-20T05:37:11.106Z,0
2023-05-20T05:39:10.545Z,0.26
2023-05-20T05:41:11.494Z,0.26
2023-05-20T05:43:11.123Z,0.26
2023-05-20T05:45:10.741Z,0
2023-05-20T05:47:11.552Z,0
2023-05-20T05:49:10.888Z,0
2023-05-20T05:51:11.484Z,0.26
2023-05-20T05:53:11.156Z,0.26
2023-05-20T05:55:10.661Z,0.26
2023-05-20T05:57:11.111Z,0
2023-05-20T05:59:10.874Z,0
2023-05-20T06:01:13.868Z,0
2023-05-20T06:03:12.395Z,0
2023-05-20T06:05:11.015Z,0
2023-05-20T06:07:11.095Z,0
2023-05-20T06:09:10.627Z,0.26
2023-05-20T06:11:11.447Z,0.26
2023-05-20T06:13:11.951Z,0.26
2023-05-20T06:15:10.593Z,0
2023-05-20T06:17:11.550Z,0
2023-05-20T06:19:14.811Z,0
2023-05-20T06:21:10.631Z,0
2023-05-20T06:23:11.087Z,0
2023-05-20T06:25:10.840Z,0
2023-05-20T06:27:10.906Z,0
2023-05-20T06:29:10.532Z,0
2023-05-20T06:31:11.911Z,0
2023-05-20T06:33:11.539Z,0
2023-05-20T06:35:10.396Z,0
2023-05-20T06:37:11.354Z,0
2023-05-20T06:39:11.038Z,0
2023-05-20T06:41:11.358Z,0
2023-05-20T06:43:10.854Z,0
2023-05-20T06:45:11.333Z,0.28
2023-05-20T06:47:11.228Z,0.28
2023-05-20T06:49:11.462Z,0.28
2023-05-20T06:51:11.322Z,0.27
2023-05-20T06:53:10.418Z,0.27
2023-05-20T06:55:11.199Z,0.27
2023-05-20T06:57:10.932Z,0.27
2023-05-20T06:59:11.083Z,0.27
2023-05-20T07:01:16.006Z,0.27
2023-05-20T07:03:10.668Z,0.27
2023-05-20T07:05:11.443Z,0.27
2023-05-20T07:07:10.587Z,0.27
2023-05-20T07:09:11.251Z,0
2023-05-20T07:11:11.018Z,0
2023-05-20T07:13:11.447Z,0
2023-05-20T07:15:10.857Z,0
2023-05-20T07:17:10.873Z,0
2023-05-20T07:19:11.633Z,0
2023-05-20T07:21:11.044Z,0
2023-05-20T07:23:12.029Z,0
2023-05-20T07:25:10.924Z,0
2023-05-20T07:27:10.466Z,0
2023-05-20T07:29:11.136Z,0
2023-05-20T07:31:10.887Z,0
2023-05-20T07:33:11.599Z,0
2023-05-20T07:35:10.678Z,0
2023-05-20T07:37:10.439Z,0
2023-05-20T07:39:26.910Z,0
2023-05-20T07:41:10.879Z,0
2023-05-20T07:43:11.049Z,0
2023-05-20T07:45:10.917Z,0
2023-05-20T07:47:11.535Z,0
2023-05-20T07:49:10.963Z,0
2023-05-20T07:51:10.726Z,0
2023-05-20T07:53:30.194Z,0
2023-05-20T07:55:10.532Z,0
2023-05-20T07:57:11.242Z,0.28
2023-05-20T07:59:10.873Z,0.28
2023-05-20T08:01:10.518Z,0.28
2023-05-20T08:03:12.442Z,0
2023-05-20T08:05:11.260Z,0
2023-05-20T08:07:12.244Z,0
2023-05-20T08:09:11.338Z,0
2023-05-20T08:11:10.993Z,0
2023-05-20T08:13:10.295Z,0
2023-05-20T08:15:10.974Z,0
2023-05-20T08:17:10.873Z,0
2023-05-20T08:19:11.599Z,0
2023-05-20T08:21:11.079Z,0.28
2023-05-20T08:23:10.673Z,0.28
2023-05-20T08:25:11.168Z,0.28
2023-05-20T08:27:11.098Z,0
2023-05-20T08:29:10.417Z,0
2023-05-20T08:33:10.934Z,0
2023-05-20T08:35:11.134Z,0
2023-05-20T08:37:10.934Z,0
2023-05-20T08:39:10.610Z,0
2023-05-20T08:41:12.832Z,0
2023-05-20T08:43:10.726Z,0
2023-05-20T08:45:11.209Z,0
2023-05-20T08:47:11.018Z,0
2023-05-20T08:49:11.302Z,0
2023-05-20T08:51:11.141Z,0
2023-05-20T08:53:10.796Z,0
2023-05-20T08:55:11.332Z,0
2023-05-20T08:57:10.693Z,0.3
2023-05-20T08:59:10.231Z,0.3
2023-05-20T09:01:14.900Z,0.3
2023-05-20T09:03:12.890Z,0
2023-05-20T09:05:11.388Z,0
2023-05-20T09:07:10.395Z,0
2023-05-20T09:09:14.157Z,0
2023-05-20T09:11:10.695Z,0
2023-05-20T09:13:11.256Z,0
2023-05-20T09:15:10.844Z,0.3
2023-05-20T09:17:11.680Z,0.3
2023-05-20T09:19:11.145Z,0.3
2023-05-20T09:21:12.049Z,0
2023-05-20T09:23:10.935Z,0
2023-05-20T09:25:10.432Z,0
2023-05-20T09:27:10.910Z,0.29
2023-05-20T09:29:10.446Z,0.29
2023-05-20T09:31:11.374Z,0.29
2023-05-20T09:33:11.267Z,0
2023-05-20T09:35:10.327Z,0
2023-05-20T09:37:14.142Z,0
2023-05-20T09:39:10.642Z,0
2023-05-20T09:41:11.189Z,0
2023-05-20T09:43:12.765Z,0
2023-05-20T09:45:11.121Z,0.28
2023-05-20T09:47:10.811Z,0.28
2023-05-20T09:49:11.299Z,0.28
2023-05-20T09:51:10.723Z,0
2023-05-20T09:53:11.001Z,0
2023-05-20T09:55:11.004Z,0
2023-05-20T09:57:10.657Z,0
2023-05-20T09:59:13.791Z,0
2023-05-20T10:01:14.851Z,0
2023-05-20T10:03:11.863Z,0
2023-05-20T10:05:10.798Z,0
2023-05-20T10:07:11.253Z,0
2023-05-20T10:09:10.723Z,0
2023-05-20T10:11:11.162Z,0
2023-05-20T10:13:10.520Z,0
2023-05-20T10:15:11.150Z,0
2023-05-20T10:17:10.852Z,0
2023-05-20T10:19:11.301Z,0
2023-05-20T10:21:11.213Z,0
2023-05-20T10:23:10.698Z,0
2023-05-20T10:25:11.999Z,0
2023-05-20T10:27:10.750Z,0
2023-05-20T10:29:11.786Z,0
2023-05-20T10:31:11.165Z,0
2023-05-20T10:33:12.280Z,0.28
2023-05-20T10:35:11.090Z,0.28
2023-05-20T10:37:10.572Z,0.28
2023-05-20T10:39:10.939Z,0
2023-05-20T10:41:10.968Z,0
2023-05-20T10:43:11.062Z,0
2023-05-20T10:45:10.649Z,0
2023-05-20T10:48:07.325Z,0
2023-05-20T10:49:11.692Z,0
2023-05-20T10:51:11.486Z,0
2023-05-20T10:53:18.613Z,0
2023-05-20T10:55:14.766Z,0
2023-05-20T10:57:11.337Z,0
2023-05-20T10:59:10.730Z,0
2023-05-20T11:01:17.511Z,0
2023-05-20T11:03:12.086Z,0.29
2023-05-20T11:05:12.044Z,0.29
2023-05-20T11:07:13.158Z,0.29
2023-05-20T11:09:17.760Z,0.3
2023-05-20T11:11:10.835Z,0.3
2023-05-20T11:13:14.125Z,0.3
2023-05-20T11:15:11.347Z,0
2023-05-20T11:17:11.486Z,0
2023-05-20T11:19:11.484Z,0
2023-05-20T11:21:11.316Z,0
2023-05-20T11:23:10.792Z,0
2023-05-20T11:25:11.165Z,0
2023-05-20T11:27:10.469Z,0
2023-05-20T11:29:13.094Z,0
2023-05-20T11:31:11.697Z,0
2023-05-20T11:33:10.979Z,0
2023-05-20T11:35:13.857Z,0
2023-05-20T11:37:14.360Z,0
2023-05-20T11:39:10.787Z,0.37
2023-05-20T11:41:25.892Z,0.37
2023-05-20T11:43:10.786Z,0.37
2023-05-20T11:45:12.794Z,0.59
2023-05-20T11:47:11.203Z,0.59
2023-05-20T11:49:11.441Z,0.59
2023-05-20T11:51:13.869Z,0.65
2023-05-20T11:53:10.483Z,0.65
2023-05-20T11:55:11.257Z,0.65
2023-05-20T11:57:10.820Z,0.76
2023-05-20T11:59:11.346Z,0.76
2023-05-20T12:01:55.830Z,0.76
2023-05-20T12:03:14.419Z,0.57
2023-05-20T12:05:11.316Z,0.57
2023-05-20T12:07:10.758Z,0.57
2023-05-20T12:09:11.354Z,0.01
2023-05-20T12:11:11.400Z,0.01
2023-05-20T12:13:10.461Z,0.01
2023-05-20T12:15:10.882Z,0.01
2023-05-20T12:17:11.008Z,0.01
2023-05-20T12:19:11.436Z,0.01
2023-05-20T12:21:11.438Z,0.56
2023-05-20T12:23:10.941Z,0.56
2023-05-20T12:25:10.509Z,0.56
2023-05-20T12:27:11.301Z,0.01
2023-05-20T12:29:11.012Z,0.01
2023-05-20T12:31:11.090Z,0.01
2023-05-20T12:33:11.395Z,0.48
2023-05-20T12:35:10.865Z,0.48
2023-05-20T12:37:11.321Z,0.48
2023-05-20T12:39:11.006Z,0
2023-05-20T12:41:11.185Z,0
2023-05-20T12:43:11.283Z,0
2023-05-20T12:45:10.613Z,0
2023-05-20T12:47:11.337Z,0
2023-05-20T12:49:10.902Z,0
2023-05-20T12:51:11.654Z,0.35
2023-05-20T12:53:20.490Z,0.35
2023-05-20T12:55:10.234Z,0.35
2023-05-20T12:57:11.073Z,0
2023-05-20T12:59:10.676Z,0
2023-05-20T13:01:15.773Z,0
2023-05-20T13:03:15.014Z,0
2023-05-20T13:05:10.739Z,0
2023-05-20T13:07:11.140Z,0
2023-05-20T13:09:12.672Z,0
2023-05-20T13:11:12.003Z,0
2023-05-20T13:13:10.902Z,0
2023-05-20T13:15:10.465Z,0.32
2023-05-20T13:17:11.286Z,0.32
2023-05-20T13:19:10.873Z,0.32
2023-05-20T13:21:11.694Z,0
2023-05-20T13:23:10.721Z,0
2023-05-20T13:25:11.049Z,0
2023-05-20T13:27:10.791Z,0
2023-05-20T13:29:11.501Z,0
2023-05-20T13:31:11.434Z,0
2023-05-20T13:33:11.472Z,0
2023-05-20T13:35:10.795Z,0
2023-05-20T13:37:10.982Z,0
2023-05-20T13:39:12.157Z,0
2023-05-20T13:41:11.528Z,0
2023-05-20T13:43:10.937Z,0
2023-05-20T13:45:10.439Z,0
2023-05-20T13:47:11.184Z,0
2023-05-20T13:49:10.416Z,0
2023-05-20T13:51:12.462Z,0.32
2023-05-20T13:53:10.696Z,0.32
2023-05-20T13:55:11.102Z,0.32
2023-05-20T13:57:10.492Z,0
2023-05-20T13:59:11.421Z,0
2023-05-20T14:01:17.487Z,0
2023-05-20T14:03:11.910Z,0
2023-05-20T14:05:11.149Z,0
2023-05-20T14:07:11.091Z,0
2023-05-20T14:09:10.589Z,0.32
2023-05-20T14:11:11.780Z,0.32
2023-05-20T14:13:11.243Z,0.32
2023-05-20T14:15:10.372Z,0
2023-05-20T14:17:11.222Z,0
2023-05-20T14:19:10.953Z,0
2023-05-20T14:21:12.069Z,0
2023-05-20T14:23:11.046Z,0
2023-05-20T14:25:10.617Z,0
2023-05-20T14:27:11.339Z,0
2023-05-20T14:29:11.139Z,0
2023-05-20T14:31:11.365Z,0
2023-05-20T14:33:11.716Z,0.33
2023-05-20T14:35:10.880Z,0.33
2023-05-20T14:37:11.213Z,0.33
2023-05-20T14:39:12.805Z,0
2023-05-20T14:41:11.983Z,0
2023-05-20T14:43:11.008Z,0
2023-05-20T14:45:12.588Z,0
2023-05-20T14:47:11.585Z,0
2023-05-20T14:49:10.981Z,0
2023-05-20T14:51:13.031Z,0.33
2023-05-20T14:53:10.699Z,0.33
2023-05-20T14:55:11.389Z,0.33
2023-05-20T14:57:12.902Z,0
2023-05-20T14:59:10.551Z,0
2023-05-20T15:01:14.875Z,0
2023-05-20T15:03:11.947Z,0.32
2023-05-20T15:05:10.489Z,0.32
2023-05-20T15:07:10.895Z,0.32
2023-05-20T15:09:11.368Z,0
2023-05-20T15:11:11.451Z,0
2023-05-20T15:13:10.633Z,0
2023-05-20T15:15:10.973Z,0
2023-05-20T15:17:10.967Z,0
2023-05-20T15:19:11.658Z,0
2023-05-20T15:21:10.980Z,0.31
2023-05-20T15:23:12.574Z,0.31
2023-05-20T15:25:11.223Z,0.31
2023-05-20T15:27:10.721Z,0
2023-05-20T15:29:10.827Z,0
2023-05-20T15:31:11.197Z,0
2023-05-20T15:33:11.987Z,0.31
2023-05-20T15:35:11.614Z,0.31
2023-05-20T15:37:11.127Z,0.31
2023-05-20T15:39:10.871Z,0
2023-05-20T15:41:11.577Z,0
2023-05-20T15:43:11.141Z,0
2023-05-20T15:45:10.718Z,0.3
2023-05-20T15:47:11.648Z,0.3
2023-05-20T15:49:11.088Z,0.3
2023-05-20T15:51:10.899Z,0
2023-05-20T15:53:13.662Z,0
2023-05-20T15:55:10.578Z,0
2023-05-20T15:57:11.162Z,0.3
2023-05-20T15:59:10.877Z,0.3
2023-05-20T16:01:10.927Z,0.3
2023-05-20T16:03:12.445Z,0.3
2023-05-20T16:05:11.214Z,0.3
2023-05-20T16:07:11.098Z,0.3
2023-05-20T16:09:10.706Z,0
2023-05-20T16:11:12.180Z,0
2023-05-20T16:13:10.758Z,0
2023-05-20T16:15:11.224Z,0
2023-05-20T16:17:11.575Z,0
2023-05-20T16:19:11.878Z,0
2023-05-20T16:21:11.456Z,0
2023-05-20T16:23:10.852Z,0
2023-05-20T16:25:11.207Z,0
2023-05-20T16:27:10.565Z,0
2023-05-20T16:29:11.102Z,0
2023-05-20T16:31:11.424Z,0
2023-05-20T16:33:10.809Z,0
2023-05-20T16:35:11.132Z,0
2023-05-20T16:37:10.437Z,0
2023-05-20T16:39:11.083Z,0.29
2023-05-20T16:41:10.838Z,0.29
2023-05-20T16:43:11.062Z,0.29
2023-05-20T16:45:10.897Z,0
2023-05-20T16:47:11.342Z,0
2023-05-20T16:49:10.752Z,0
2023-05-20T16:51:11.611Z,0
2023-05-20T16:53:11.345Z,0
2023-05-20T16:55:10.719Z,0
2023-05-20T16:57:10.992Z,0
2023-05-20T16:59:13.702Z,0
2023-05-20T17:01:14.527Z,0
2023-05-20T17:03:11.468Z,0
2023-05-20T17:05:10.958Z,0
2023-05-20T17:07:11.511Z,0
2023-05-20T17:09:10.716Z,0
2023-05-20T17:11:11.556Z,0
2023-05-20T17:13:10.900Z,0
2023-05-20T17:15:10.564Z,0
2023-05-20T17:17:11.531Z,0
2023-05-20T17:19:11.717Z,0
2023-05-20T17:21:11.470Z,0.28
2023-05-20T17:23:10.662Z,0.28
2023-05-20T17:25:11.426Z,0.28
2023-05-20T17:27:10.672Z,0
2023-05-20T17:29:11.110Z,0
2023-05-20T17:31:11.256Z,0
2023-05-20T17:33:10.926Z,0
2023-05-20T17:35:11.268Z,0
2023-05-20T17:37:10.724Z,0
2023-05-20T17:39:11.081Z,0
2023-05-20T17:41:11.257Z,0
2023-05-20T17:43:11.322Z,0
2023-05-20T17:45:10.884Z,0
2023-05-20T17:47:10.968Z,0
2023-05-20T17:49:11.471Z,0
2023-05-20T17:51:11.434Z,0
2023-05-20T17:53:10.349Z,0
2023-05-20T17:55:11.144Z,0
2023-05-20T17:57:10.804Z,0.3
2023-05-20T17:59:10.495Z,0.3
2023-05-20T18:01:13.897Z,0.3
2023-05-20T18:03:11.770Z,0
2023-05-20T18:05:10.665Z,0
2023-05-20T18:07:10.987Z,0
2023-05-20T18:09:10.698Z,0
2023-05-20T18:11:11.630Z,0
2023-05-20T18:13:10.823Z,0
2023-05-20T18:15:10.506Z,0
2023-05-20T18:17:11.461Z,0
2023-05-20T18:19:10.890Z,0
2023-05-20T18:21:11.056Z,0
2023-05-20T18:23:11.306Z,0
2023-05-20T18:25:11.025Z,0
2023-05-20T18:27:10.620Z,0
2023-05-20T18:29:11.069Z,0
2023-05-20T18:31:11.471Z,0
2023-05-20T18:33:10.872Z,0.34
2023-05-20T18:35:11.064Z,0.34
2023-05-20T18:37:10.619Z,0.34
2023-05-20T18:39:14.250Z,0.34
2023-05-20T18:41:11.430Z,0.34
2023-05-20T18:43:10.940Z,0.34
2023-05-20T18:45:13.483Z,0
2023-05-20T18:47:11.276Z,0
2023-05-20T18:49:20.602Z,0
2023-05-20T18:51:11.879Z,0
2023-05-20T18:53:10.894Z,0
2023-05-20T18:55:10.550Z,0
2023-05-20T18:57:10.994Z,0
2023-05-20T18:59:10.448Z,0
2023-05-20T19:01:14.209Z,0
2023-05-20T19:03:10.838Z,0
2023-05-20T19:05:11.203Z,0
2023-05-20T19:07:10.960Z,0
2023-05-20T19:09:10.317Z,0
2023-05-20T19:11:13.385Z,0
2023-05-20T19:13:10.881Z,0
2023-05-20T19:15:11.489Z,0
2023-05-20T19:17:11.122Z,0
2023-05-20T19:19:10.882Z,0
2023-05-20T19:21:11.516Z,0
2023-05-20T19:23:11.028Z,0
2023-05-20T19:25:10.398Z,0
2023-05-20T19:27:10.873Z,0
2023-05-20T19:29:10.564Z,0
2023-05-20T19:31:11.435Z,0
2023-05-20T19:33:10.955Z,0
2023-05-20T19:35:11.224Z,0
2023-05-20T19:37:11.063Z,0
2023-05-20T19:39:10.581Z,0.16
2023-05-20T19:41:10.845Z,0.16
2023-05-20T19:43:11.855Z,0.16
2023-05-20T19:45:10.725Z,0.1
2023-05-20T19:47:11.471Z,0.1
2023-05-20T19:49:11.168Z,0.1
2023-05-20T19:51:11.139Z,0.07
2023-05-20T19:53:10.414Z,0.07
2023-05-20T19:55:10.931Z,0.07
2023-05-20T19:57:10.678Z,0
2023-05-20T19:59:11.346Z,0
2023-05-20T20:01:13.876Z,0
2023-05-20T20:03:11.013Z,0.06
2023-05-20T20:05:10.772Z,0.06
2023-05-20T20:07:11.614Z,0.06
2023-05-20T20:09:10.935Z,0.06
2023-05-20T20:11:10.852Z,0.06
2023-05-20T20:13:11.171Z,0.06
2023-05-20T20:15:11.117Z,0.05
2023-05-20T20:17:10.697Z,0.05
2023-05-20T20:19:11.326Z,0.05
2023-05-20T20:21:11.227Z,0
2023-05-20T20:23:10.805Z,0
2023-05-20T20:25:10.465Z,0
2023-05-20T20:27:11.238Z,0
2023-05-20T20:29:10.621Z,0
2023-05-20T20:31:11.339Z,0
2023-05-20T20:33:12.803Z,0
2023-05-20T20:35:11.339Z,0
2023-05-20T20:37:10.760Z,0
2023-05-20T20:39:10.439Z,0
2023-05-20T20:41:11.709Z,0
2023-05-20T20:43:10.741Z,0
2023-05-20T20:45:10.456Z,0
2023-05-20T20:47:11.554Z,0
2023-05-20T20:49:11.043Z,0
2023-05-20T20:51:11.281Z,0.07
2023-05-20T20:53:10.601Z,0.07
2023-05-20T20:55:11.355Z,0.07
2023-05-20T20:57:10.861Z,0
2023-05-20T20:59:10.490Z,0
2023-05-20T21:01:18.464Z,0
2023-05-20T21:03:11.788Z,0
2023-05-20T21:05:11.770Z,0
2023-05-20T21:07:13.279Z,0
2023-05-20T21:09:11.125Z,0
2023-05-20T21:11:10.739Z,0
2023-05-20T21:13:11.076Z,0
2023-05-20T21:15:10.764Z,0
2023-05-20T21:17:12.185Z,0
2023-05-20T21:19:11.048Z,0
2023-05-20T21:21:10.752Z,0.04
2023-05-20T21:23:10.474Z,0.04
2023-05-20T21:25:11.198Z,0.04
2023-05-20T21:27:10.644Z,0
2023-05-20T21:29:11.338Z,0
2023-05-20T21:31:11.301Z,0
2023-05-20T21:33:11.223Z,0
2023-05-20T21:35:11.297Z,0
2023-05-20T21:37:10.844Z,0
2023-05-20T21:39:10.539Z,0
2023-05-20T21:41:11.345Z,0
2023-05-20T21:43:11.054Z,0
2023-05-20T21:45:10.520Z,0
2023-05-20T21:47:11.518Z,0
2023-05-20T21:49:10.757Z,0
2023-05-20T21:51:11.478Z,0
2023-05-20T21:53:10.983Z,0
2023-05-20T21:55:10.553Z,0
2023-05-20T21:57:11.172Z,0
2023-05-20T21:59:10.596Z,0
2023-05-20T22:01:19.435Z,0
2023-05-20T22:03:11.447Z,0
2023-05-20T22:05:11.180Z,0
2023-05-20T22:07:10.693Z,0
2023-05-20T22:09:10.884Z,0
2023-05-20T22:11:10.637Z,0
2023-05-20T22:13:10.938Z,0
2023-05-20T22:15:10.483Z,0
2023-05-20T22:17:11.748Z,0
2023-05-20T22:19:10.772Z,0
2023-05-20T22:21:11.273Z,0
2023-05-20T22:23:10.624Z,0
2023-05-20T22:25:10.968Z,0
2023-05-20T22:27:10.808Z,0
2023-05-20T22:29:11.153Z,0
2023-05-20T22:31:11.220Z,0
2023-05-20T22:33:10.997Z,0
2023-05-20T22:35:10.973Z,0
2023-05-20T22:37:10.538Z,0
2023-05-20T22:39:11.086Z,0
2023-05-20T22:41:10.906Z,0
2023-05-20T22:43:11.203Z,0
2023-05-20T22:45:10.571Z,0.15
2023-05-20T22:47:11.899Z,0.15
2023-05-20T22:49:11.167Z,0.15
2023-05-20T22:51:15.245Z,0
2023-05-20T22:53:10.970Z,0
2023-05-20T22:55:10.542Z,0
2023-05-20T22:57:11.324Z,0.17
2023-05-20T22:59:10.744Z,0.17
2023-05-20T23:01:15.118Z,0.17
2023-05-20T23:03:11.796Z,0
2023-05-20T23:05:11.333Z,0
2023-05-20T23:07:11.354Z,0
2023-05-20T23:09:11.025Z,0
2023-05-20T23:11:11.520Z,0
2023-05-20T23:13:11.032Z,0
2023-05-20T23:15:11.177Z,0
2023-05-20T23:17:11.699Z,0
2023-05-20T23:19:11.892Z,0
2023-05-20T23:21:11.168Z,0.19
2023-05-20T23:23:30.434Z,0.19
2023-05-20T23:25:11.577Z,0.19
2023-05-20T23:27:10.905Z,0
2023-05-20T23:29:10.969Z,0
2023-05-20T23:31:10.730Z,0
2023-05-20T23:33:12.142Z,0
2023-05-20T23:35:10.977Z,0
2023-05-20T23:37:11.329Z,0
2023-05-20T23:39:10.936Z,0
2023-05-20T23:41:10.591Z,0
2023-05-20T23:43:10.900Z,0
2023-05-20T23:45:10.605Z,0.19
2023-05-20T23:47:11.297Z,0.19
2023-05-20T23:49:11.168Z,0.19
2023-05-20T23:51:10.628Z,0
2023-05-20T23:53:11.271Z,0
2023-05-20T23:55:10.620Z,0
2023-05-20T23:57:10.642Z,0
2023-05-20T23:59:11.143Z,0
